Terminal Aerodrome Forecast
Issued by NWS

Home | Current Version | Previous Version | Text Only | Print | Product List | Glossary On
Versions: 1 2 3 4 5 6 7 8 9 10 11 12 13 14 15 16 17 18 19
000
FTUS45 KABQ 041700
TAFLVS
TAF
KLVS 041738Z 0418/0518 16010KT 3SM BR OVC009
      TEMPO 0418/0422 1/2SM -SN FZFG OVC002
     FM042200 11012KT 2SM -SN BR OVC003
     FM050300 12008KT 3/4SM BR OVC005
     FM051400 20008KT 5SM BR BKN005
     FM051700 18016KT P6SM SCT012 SCT100=

USA.gov is the U.S. government's official web portal to all federal, state and local government web resources and services.